Sakura — JG5711 — position and weather

sailwx.info

Track history (hours):
 
Tides and Currents Weather Stations Pressure Air Temp Water Temp Dewpoint Dewpoint Depression Visibility Wind Speed Wind Dir Waves Ship Positions

Sakura

Last reported at 2015-Jan-28 07:14 UTC. Time now 2015-Jan-28 20:16 UTC.
Position N 35°27' E 139°39'.

Length 32 m; draft 3.6 m.

Type: Tug. MMSI: 431101178.

Date/timePositionNaut miles runAvg speedWind from/ knotsBaromVisibWave heightAir tempDewpointWater temp
2015-Jan-28 07:14N 35°27' E 139°39'0 0.0
2015-Jan-28 06:33N 35°27' E 139°39'0 0.0
2015-Jan-28 05:34N 35°27' E 139°39'0 0.0
2015-Jan-28 04:34N 35°27' E 139°39'1 0.9
2015-Jan-28 03:33N 35°27' E 139°40'4 4.1
2015-Jan-28 02:34N 35°29' E 139°44'2 2.3
2015-Jan-28 01:33N 35°27' E 139°46'1 0.9
2015-Jan-28 00:34N 35°27' E 139°45'2 1.7
2015-Jan-27 23:33N 35°29' E 139°45'1 1.2
2015-Jan-27 22:34N 35°30' E 139°46'2 1.6
2015-Jan-27 21:33N 35°31' E 139°46'7 7.1
2015-Jan-27 20:34N 35°27' E 139°39'1 0.1
2015-Jan-27 10:28N 35°28' E 139°39'3 2.9
2015-Jan-27 09:33N 35°28' E 139°42'1 0.8
2015-Jan-27 08:33N 35°28' E 139°41'3 3.3
2015-Jan-27 07:33N 35°26' E 139°45'5 5.0
2015-Jan-27 06:33N 35°27' E 139°39'0 0.0
2015-Jan-27 05:33N 35°27' E 139°39'0 0.0
2015-Jan-27 04:33N 35°27' E 139°39'0 0.0
2015-Jan-27 03:33N 35°27' E 139°39'0 0.0
2015-Jan-27 02:34N 35°27' E 139°39'0 0.0
2015-Jan-27 01:33N 35°27' E 139°39'0 0.0
2015-Jan-27 00:33N 35°27' E 139°39'2 1.6
2015-Jan-26 23:34N 35°27' E 139°41'2 1.6
2015-Jan-26 22:33N 35°27' E 139°39'2 0.2
2015-Jan-26 09:33N 35°27' E 139°41'2 1.7
2015-Jan-26 08:33N 35°26' E 139°42'3 3.4
2015-Jan-26 07:33N 35°27' E 139°39'0 0.0
2015-Jan-26 06:33N 35°27' E 139°39'0 0.0
2015-Jan-26 05:33N 35°27' E 139°39'0 0.0
2015-Jan-26 04:33N 35°27' E 139°39'3 3.4
2015-Jan-26 03:34N 35°24' E 139°40'2 2.1
2015-Jan-26 02:33N 35°24' E 139°37'5 4.5
2015-Jan-26 01:33N 35°28' E 139°41'0 0.0
2015-Jan-26 00:33N 35°28' E 139°41'1 1.3
2015-Jan-25 23:33N 35°28' E 139°39'1 0.9
2015-Jan-25 22:33N 35°27' E 139°39'1 0.7
2015-Jan-25 21:33N 35°27' E 139°39'0 0.0
2015-Jan-25 07:33N 35°27' E 139°39'2 1.5
2015-Jan-25 06:33N 35°28' E 139°40'0 0.0
2015-Jan-25 05:33N 35°28' E 139°40'0 0.0
2015-Jan-25 04:33N 35°28' E 139°40'0 0.0
2015-Jan-25 03:33N 35°28' E 139°40'0 0.0
2015-Jan-25 02:33N 35°28' E 139°40'0 0.0
2015-Jan-25 01:33N 35°28' E 139°40'1 1.2
2015-Jan-25 00:34N 35°28' E 139°39'1 1.2
2015-Jan-24 23:33N 35°28' E 139°40'1 0.5
2015-Jan-24 22:33N 35°28' E 139°41'3 3.3
2015-Jan-24 21:33N 35°26' E 139°44'5 4.7
2015-Jan-24 20:33N 35°27' E 139°39'0 0.0
2015-Jan-24 09:16N 35°27' E 139°39'2 3.1
2015-Jan-24 08:33N 35°27' E 139°41'1 0.6
2015-Jan-24 07:34N 35°27' E 139°40'2 1.6
2015-Jan-24 06:34N 35°27' E 139°39'0 0.0
2015-Jan-24 05:34N 35°27' E 139°39'1 0.5
2015-Jan-24 04:33N 35°28' E 139°39'4 3.7
2015-Jan-24 03:33N 35°24' E 139°38'0 0.0
2015-Jan-24 02:33N 35°24' E 139°38'3 3.0
2015-Jan-24 01:33N 35°23' E 139°41'5 4.6
2015-Jan-24 00:33N 35°27' E 139°39'2 1.7
2015-Jan-23 23:33N 35°28' E 139°41'1 1.0
2015-Jan-23 22:33N 35°28' E 139°42'1 1.1
2015-Jan-23 21:33N 35°27' E 139°42'3 2.6
2015-Jan-23 20:33N 35°27' E 139°39'0 0.0
2015-Jan-23 07:09N 35°27' E 139°39'2 2.6
2015-Jan-23 06:34N 35°28' E 139°40'5 5.2
2015-Jan-23 05:34N 35°30' E 139°46'4 4.0
2015-Jan-23 04:33N 35°26' E 139°45'4 3.6
2015-Jan-23 03:33N 35°30' E 139°47'4 3.6
2015-Jan-23 02:33N 35°29' E 139°43'3 3.2
2015-Jan-23 01:33N 35°31' E 139°46'2 2.0
2015-Jan-23 00:33N 35°30' E 139°48'3 3.1
2015-Jan-22 23:34N 35°28' E 139°45'5 4.9
2015-Jan-22 22:33N 35°27' E 139°39'0 0.0
2015-Jan-21 22:18N 35°27' E 139°39'2 2.8
2015-Jan-21 21:33N 35°27' E 139°41'1 1.1
2015-Jan-21 20:33N 35°26' E 139°42'0 0.0
2015-Jan-21 19:33N 35°26' E 139°42'2 1.7
2015-Jan-21 18:33N 35°28' E 139°42'1 0.9
2015-Jan-21 17:34N 35°28' E 139°41'0 0.0
2015-Jan-21 16:34N 35°28' E 139°41'0 0.0
2015-Jan-21 15:34N 35°28' E 139°41'0 0.0
2015-Jan-21 14:33N 35°28' E 139°41'0 0.0
2015-Jan-21 13:34N 35°28' E 139°41'0 0.0
2015-Jan-21 12:33N 35°28' E 139°41'0 0.0
2015-Jan-21 11:33N 35°28' E 139°41'0 0.0
2015-Jan-21 10:34N 35°28' E 139°41'3 2.6
2015-Jan-21 09:33N 35°26' E 139°43'1 1.2
2015-Jan-21 08:34N 35°27' E 139°42'1 1.3
2015-Jan-21 07:33N 35°27' E 139°41'2 2.0
2015-Jan-21 06:34N 35°27' E 139°39'0 0.0
2015-Jan-21 05:34N 35°27' E 139°39'0 0.0
2015-Jan-21 04:34N 35°27' E 139°39'0 0.0
2015-Jan-21 03:34N 35°27' E 139°39'0 0.0
2015-Jan-21 02:34N 35°27' E 139°39'0 0.0
2015-Jan-21 01:33N 35°27' E 139°39'0 0.0
2015-Jan-21 00:34N 35°27' E 139°39'0 0.0
2015-Jan-20 23:33N 35°27' E 139°39'0 0.0
2015-Jan-20 07:10N 35°27' E 139°39'0 0.0
2015-Jan-20 06:33N 35°27' E 139°39'0 0.0
2015-Jan-20 05:33N 35°27' E 139°39'0 0.0
2015-Jan-20 04:33N 35°27' E 139°39'0 0.0
2015-Jan-20 03:33N 35°27' E 139°39'1 1.0
2015-Jan-20 02:33N 35°27' E 139°40'2 2.4
2015-Jan-20 01:33N 35°26' E 139°42'1 0.5
2015-Jan-20 00:34N 35°26' E 139°42'0 0.0
2015-Jan-19 23:34N 35°26' E 139°42'2 2.0
2015-Jan-19 22:33N 35°24' E 139°42'4 4.1
2015-Jan-19 21:33N 35°24' E 139°37'4 3.5
2015-Jan-19 20:33N 35°27' E 139°39'0 0.0
2015-Jan-19 09:09N 35°27' E 139°39'0 0.0
2015-Jan-19 08:33N 35°27' E 139°39'2 2.4
2015-Jan-19 07:33N 35°28' E 139°42'1 1.1
2015-Jan-19 06:33N 35°28' E 139°40'1 1.5
2015-Jan-19 05:33N 35°27' E 139°39'0 0.0
2015-Jan-19 04:33N 35°27' E 139°39'0 0.0
2015-Jan-19 03:33N 35°27' E 139°39'0 0.0
2015-Jan-19 02:33N 35°27' E 139°39'0 0.0
2015-Jan-19 01:33N 35°27' E 139°39'4 4.3
2015-Jan-19 00:33N 35°29' E 139°43'2 2.0
2015-Jan-18 23:33N 35°27' E 139°42'0 0.0
2015-Jan-18 22:33N 35°27' E 139°42'3 2.9
2015-Jan-18 21:33N 35°30' E 139°44'1 0.6
2015-Jan-18 20:33N 35°30' E 139°43'5 4.6
2015-Jan-18 19:33N 35°27' E 139°39'  
Track history (hours):
 
Tides and Currents Weather Stations Pressure Air Temp Water Temp Dewpoint Dewpoint Depression Visibility Wind Speed Wind Dir Waves Ship Positions

Sakura

Last reported at 2015-Jan-28 07:14 UTC. Time now 2015-Jan-28 20:16 UTC.
Position N 35°27' E 139°39'.

Length 32 m; draft 3.6 m.

Type: Tug. MMSI: 431101178.

Date/timePositionNaut miles runAvg speedWind from/ knotsBaromVisibWave heightAir tempDewpointWater temp
2015-Jan-28 07:14N 35°27' E 139°39'0 0.0
2015-Jan-28 06:33N 35°27' E 139°39'0 0.0
2015-Jan-28 05:34N 35°27' E 139°39'0 0.0
2015-Jan-28 04:34N 35°27' E 139°39'1 0.9
2015-Jan-28 03:33N 35°27' E 139°40'4 4.1
2015-Jan-28 02:34N 35°29' E 139°44'2 2.3
2015-Jan-28 01:33N 35°27' E 139°46'1 0.9
2015-Jan-28 00:34N 35°27' E 139°45'2 1.7
2015-Jan-27 23:33N 35°29' E 139°45'1 1.2
2015-Jan-27 22:34N 35°30' E 139°46'2 1.6
2015-Jan-27 21:33N 35°31' E 139°46'7 7.1
2015-Jan-27 20:34N 35°27' E 139°39'1 0.1
2015-Jan-27 10:28N 35°28' E 139°39'3 2.9
2015-Jan-27 09:33N 35°28' E 139°42'1 0.8
2015-Jan-27 08:33N 35°28' E 139°41'3 3.3
2015-Jan-27 07:33N 35°26' E 139°45'5 5.0
2015-Jan-27 06:33N 35°27' E 139°39'0 0.0
2015-Jan-27 05:33N 35°27' E 139°39'0 0.0
2015-Jan-27 04:33N 35°27' E 139°39'0 0.0
2015-Jan-27 03:33N 35°27' E 139°39'0 0.0
2015-Jan-27 02:34N 35°27' E 139°39'0 0.0
2015-Jan-27 01:33N 35°27' E 139°39'0 0.0
2015-Jan-27 00:33N 35°27' E 139°39'2 1.6
2015-Jan-26 23:34N 35°27' E 139°41'2 1.6
2015-Jan-26 22:33N 35°27' E 139°39'2 0.2
2015-Jan-26 09:33N 35°27' E 139°41'2 1.7
2015-Jan-26 08:33N 35°26' E 139°42'3 3.4
2015-Jan-26 07:33N 35°27' E 139°39'0 0.0
2015-Jan-26 06:33N 35°27' E 139°39'0 0.0
2015-Jan-26 05:33N 35°27' E 139°39'0 0.0
2015-Jan-26 04:33N 35°27' E 139°39'3 3.4
2015-Jan-26 03:34N 35°24' E 139°40'2 2.1
2015-Jan-26 02:33N 35°24' E 139°37'5 4.5
2015-Jan-26 01:33N 35°28' E 139°41'0 0.0
2015-Jan-26 00:33N 35°28' E 139°41'1 1.3
2015-Jan-25 23:33N 35°28' E 139°39'1 0.9
2015-Jan-25 22:33N 35°27' E 139°39'1 0.7
2015-Jan-25 21:33N 35°27' E 139°39'0 0.0
2015-Jan-25 07:33N 35°27' E 139°39'2 1.5
2015-Jan-25 06:33N 35°28' E 139°40'0 0.0
2015-Jan-25 05:33N 35°28' E 139°40'0 0.0
2015-Jan-25 04:33N 35°28' E 139°40'0 0.0
2015-Jan-25 03:33N 35°28' E 139°40'0 0.0
2015-Jan-25 02:33N 35°28' E 139°40'0 0.0
2015-Jan-25 01:33N 35°28' E 139°40'1 1.2
2015-Jan-25 00:34N 35°28' E 139°39'1 1.2
2015-Jan-24 23:33N 35°28' E 139°40'1 0.5
2015-Jan-24 22:33N 35°28' E 139°41'3 3.3
2015-Jan-24 21:33N 35°26' E 139°44'5 4.7
2015-Jan-24 20:33N 35°27' E 139°39'0 0.0
2015-Jan-24 09:16N 35°27' E 139°39'2 3.1
2015-Jan-24 08:33N 35°27' E 139°41'1 0.6
2015-Jan-24 07:34N 35°27' E 139°40'2 1.6
2015-Jan-24 06:34N 35°27' E 139°39'0 0.0
2015-Jan-24 05:34N 35°27' E 139°39'1 0.5
2015-Jan-24 04:33N 35°28' E 139°39'4 3.7
2015-Jan-24 03:33N 35°24' E 139°38'0 0.0
2015-Jan-24 02:33N 35°24' E 139°38'3 3.0
2015-Jan-24 01:33N 35°23' E 139°41'5 4.6
2015-Jan-24 00:33N 35°27' E 139°39'2 1.7
2015-Jan-23 23:33N 35°28' E 139°41'1 1.0
2015-Jan-23 22:33N 35°28' E 139°42'1 1.1
2015-Jan-23 21:33N 35°27' E 139°42'3 2.6
2015-Jan-23 20:33N 35°27' E 139°39'0 0.0
2015-Jan-23 07:09N 35°27' E 139°39'2 2.6
2015-Jan-23 06:34N 35°28' E 139°40'5 5.2
2015-Jan-23 05:34N 35°30' E 139°46'4 4.0
2015-Jan-23 04:33N 35°26' E 139°45'4 3.6
2015-Jan-23 03:33N 35°30' E 139°47'4 3.6
2015-Jan-23 02:33N 35°29' E 139°43'3 3.2
2015-Jan-23 01:33N 35°31' E 139°46'2 2.0
2015-Jan-23 00:33N 35°30' E 139°48'3 3.1
2015-Jan-22 23:34N 35°28' E 139°45'5 4.9
2015-Jan-22 22:33N 35°27' E 139°39'0 0.0
2015-Jan-21 22:18N 35°27' E 139°39'2 2.8
2015-Jan-21 21:33N 35°27' E 139°41'1 1.1
2015-Jan-21 20:33N 35°26' E 139°42'0 0.0
2015-Jan-21 19:33N 35°26' E 139°42'2 1.7
2015-Jan-21 18:33N 35°28' E 139°42'1 0.9
2015-Jan-21 17:34N 35°28' E 139°41'0 0.0
2015-Jan-21 16:34N 35°28' E 139°41'0 0.0
2015-Jan-21 15:34N 35°28' E 139°41'0 0.0
2015-Jan-21 14:33N 35°28' E 139°41'0 0.0
2015-Jan-21 13:34N 35°28' E 139°41'0 0.0
2015-Jan-21 12:33N 35°28' E 139°41'0 0.0
2015-Jan-21 11:33N 35°28' E 139°41'0 0.0
2015-Jan-21 10:34N 35°28' E 139°41'3 2.6
2015-Jan-21 09:33N 35°26' E 139°43'1 1.2
2015-Jan-21 08:34N 35°27' E 139°42'1 1.3
2015-Jan-21 07:33N 35°27' E 139°41'2 2.0
2015-Jan-21 06:34N 35°27' E 139°39'0 0.0
2015-Jan-21 05:34N 35°27' E 139°39'0 0.0
2015-Jan-21 04:34N 35°27' E 139°39'0 0.0
2015-Jan-21 03:34N 35°27' E 139°39'0 0.0
2015-Jan-21 02:34N 35°27' E 139°39'0 0.0
2015-Jan-21 01:33N 35°27' E 139°39'0 0.0
2015-Jan-21 00:34N 35°27' E 139°39'0 0.0
2015-Jan-20 23:33N 35°27' E 139°39'0 0.0
2015-Jan-20 07:10N 35°27' E 139°39'0 0.0
2015-Jan-20 06:33N 35°27' E 139°39'0 0.0
2015-Jan-20 05:33N 35°27' E 139°39'0 0.0
2015-Jan-20 04:33N 35°27' E 139°39'0 0.0
2015-Jan-20 03:33N 35°27' E 139°39'1 1.0
2015-Jan-20 02:33N 35°27' E 139°40'2 2.4
2015-Jan-20 01:33N 35°26' E 139°42'1 0.5
2015-Jan-20 00:34N 35°26' E 139°42'0 0.0
2015-Jan-19 23:34N 35°26' E 139°42'2 2.0
2015-Jan-19 22:33N 35°24' E 139°42'4 4.1
2015-Jan-19 21:33N 35°24' E 139°37'4 3.5
2015-Jan-19 20:33N 35°27' E 139°39'0 0.0
2015-Jan-19 09:09N 35°27' E 139°39'0 0.0
2015-Jan-19 08:33N 35°27' E 139°39'2 2.4
2015-Jan-19 07:33N 35°28' E 139°42'1 1.1
2015-Jan-19 06:33N 35°28' E 139°40'1 1.5
2015-Jan-19 05:33N 35°27' E 139°39'0 0.0
2015-Jan-19 04:33N 35°27' E 139°39'0 0.0
2015-Jan-19 03:33N 35°27' E 139°39'0 0.0
2015-Jan-19 02:33N 35°27' E 139°39'0 0.0
2015-Jan-19 01:33N 35°27' E 139°39'4 4.3
2015-Jan-19 00:33N 35°29' E 139°43'2 2.0
2015-Jan-18 23:33N 35°27' E 139°42'0 0.0
2015-Jan-18 22:33N 35°27' E 139°42'3 2.9
2015-Jan-18 21:33N 35°30' E 139°44'1 0.6
2015-Jan-18 20:33N 35°30' E 139°43'5 4.6
2015-Jan-18 19:33N 35°27' E 139°39'  

Dump ship's entire track history